Time;durP1;ratioP1;P1;durP2;ratioP2;P2;SDS_P1;SDS_P2;PMS_P1;PMS_P2;Temp;Humidity;BMP_temperature;BMP_pressure;BME280_temperature;BME280_humidity;BME280_pressure;Samples;Min_cycle;Max_cycle;Signal;HPM_P1;HPM_P2
2022/01/27 00:00:59;;;;;;;26.38;15.60;;;1.80;99.90;;;;;;5032739;28;20083;-47
2022/01/27 00:03:30;;;;;;;28.17;15.63;;;1.80;99.90;;;;;;5030975;28;20035;-49
2022/01/27 00:06:01;;;;;;;34.33;17.63;;;1.80;99.90;;;;;;5032875;28;20400;-51
2022/01/27 00:08:54;;;;;;;30.27;15.75;;;1.90;99.90;;;;;;5032481;28;20539;-48
2022/01/27 00:11:14;;;;;;;28.52;16.08;;;1.80;99.90;;;;;;5032469;28;20053;-48
2022/01/27 00:13:47;;;;;;;30.73;16.92;;;1.80;99.90;;;;;;5032198;28;20054;-49
2022/01/27 00:16:20;;;;;;;28.15;15.80;;;2.00;99.90;;;;;;5032539;28;20068;-43
2022/01/27 00:18:49;;;;;;;32.80;16.75;;;1.90;99.90;;;;;;5032426;28;20032;-49
2022/01/27 00:21:17;;;;;;;33.05;16.77;;;1.90;99.90;;;;;;5030949;28;20040;-49
2022/01/27 00:23:45;;;;;;;32.30;16.20;;;2.00;99.90;;;;;;5031928;28;20225;-47
2022/01/27 00:26:12;;;;;;;35.33;18.05;;;1.90;99.90;;;;;;5032450;28;20014;-51
2022/01/27 00:28:41;;;;;;;28.77;16.52;;;1.90;99.90;;;;;;5031094;28;20025;-45
2022/01/27 00:31:07;;;;;;;29.88;16.70;;;1.90;99.90;;;;;;5032206;28;20055;-48
2022/01/27 00:33:33;;;;;;;30.55;16.77;;;1.90;99.90;;;;;;5031953;28;20067;-47
2022/01/27 00:35:59;;;;;;;31.77;16.77;;;1.90;99.90;;;;;;5032113;28;20064;-48
2022/01/27 00:38:24;;;;;;;27.15;16.08;;;1.90;99.90;;;;;;5031519;28;20040;-46
2022/01/27 00:40:50;;;;;;;28.35;16.75;;;1.90;99.90;;;;;;5031971;28;20017;-48
2022/01/27 00:43:16;;;;;;;27.33;16.23;;;1.90;99.90;;;;;;5031589;28;20057;-50
2022/01/27 00:45:42;;;;;;;35.63;17.42;;;1.80;99.90;;;;;;5032476;28;20123;-48
2022/01/27 00:48:08;;;;;;;35.92;18.42;;;1.80;99.90;;;;;;5060615;22;20163;-51
2022/01/27 00:50:36;;;;;;;35.60;18.88;;;1.90;99.90;;;;;;5051636;28;20044;-52
2022/01/27 00:53:06;;;;;;;33.22;19.55;;;1.80;99.90;;;;;;5051309;28;20273;-46
2022/01/27 00:55:38;;;;;;;38.08;18.83;;;1.80;99.90;;;;;;5050202;28;20075;-48
2022/01/27 01:00:37;;;;;;;35.83;18.05;;;1.80;99.90;;;;;;5051398;28;20025;-51
2022/01/27 01:03:25;;;;;;;30.20;16.95;;;1.80;99.90;;;;;;5049944;28;20113;-47
2022/01/27 01:16:53;;;;;;;32.67;18.08;;;1.80;99.90;;;;;;5051641;28;20052;-48
2022/01/27 01:32:53;;;;;;;36.58;19.70;;;1.90;99.90;;;;;;5051397;28;20020;-51
2022/01/27 01:35:27;;;;;;;44.85;21.58;;;1.90;99.90;;;;;;5051289;28;20481;-48
2022/01/27 01:37:54;;;;;;;35.65;18.77;;;2.00;99.90;;;;;;5051483;28;20503;-50
2022/01/27 01:40:20;;;;;;;36.35;19.15;;;2.00;99.90;;;;;;5051081;28;20032;-47
2022/01/27 01:42:46;;;;;;;35.47;18.05;;;2.00;99.90;;;;;;5050750;28;20025;-44
2022/01/27 01:45:18;;;;;;;34.70;19.30;;;2.00;99.90;;;;;;5050985;28;20029;-47
2022/01/27 01:47:44;;;;;;;38.97;19.85;;;2.00;99.90;;;;;;5051076;28;20037;-50
2022/01/27 01:50:11;;;;;;;37.78;20.95;;;1.90;99.90;;;;;;5051439;28;20560;-49
2022/01/27 01:52:37;;;;;;;37.65;20.63;;;1.90;99.90;;;;;;5049777;28;20029;-48
2022/01/27 01:55:04;;;;;;;41.22;20.80;;;1.90;99.90;;;;;;5049532;28;20078;-50
2022/01/27 01:57:30;;;;;;;39.30;20.52;;;1.90;99.90;;;;;;5049441;28;20025;-51
2022/01/27 01:59:56;;;;;;;35.17;20.10;;;1.90;99.90;;;;;;5049746;28;20028;-50
2022/01/27 02:02:22;;;;;;;39.38;21.27;;;1.90;99.90;;;;;;5050951;28;20078;-47
2022/01/27 02:04:47;;;;;;;36.78;20.13;;;1.90;99.90;;;;;;5049510;28;20399;-46
2022/01/27 02:07:53;;;;;;;40.92;20.15;;;1.80;99.90;;;;;;5050961;28;20017;-47
2022/01/27 02:17:48;;;;;;;39.80;19.40;;;1.90;99.90;;;;;;5050813;28;20458;-51
2022/01/27 02:18:44;;;;;;;44.10;22.25;;;1.90;99.90;;;;;;5050929;28;20091;-52
2022/01/27 02:21:10;;;;;;;47.33;22.80;;;1.80;99.90;;;;;;5049455;28;20025;-47
2022/01/27 02:23:35;;;;;;;39.38;20.70;;;1.90;99.90;;;;;;5050949;28;20083;-49
2022/01/27 02:26:01;;;;;;;46.38;23.77;;;1.80;99.90;;;;;;5049461;28;20021;-50
2022/01/27 02:28:26;;;;;;;43.05;21.88;;;1.80;99.90;;;;;;5049326;28;20028;-50
2022/01/27 02:30:52;;;;;;;46.17;22.20;;;1.80;99.90;;;;;;5050641;28;20078;-48
2022/01/27 02:33:29;;;;;;;44.63;21.77;;;1.80;99.90;;;;;;5052531;28;20021;-48
2022/01/27 02:35:54;;;;;;;39.03;21.13;;;1.80;99.90;;;;;;5054198;28;20205;-48
2022/01/27 02:38:20;;;;;;;43.28;21.85;;;1.80;99.90;;;;;;5053991;28;20040;-50
2022/01/27 02:40:53;;;;;;;42.75;22.23;;;1.80;99.90;;;;;;5054158;28;20404;-48
2022/01/27 02:43:19;;;;;;;42.63;22.02;;;1.70;99.90;;;;;;5053728;28;20037;-49
2022/01/27 02:46:15;;;;;;;38.00;20.40;;;1.70;99.90;;;;;;5054085;28;20108;-51
2022/01/27 02:48:40;;;;;;;39.72;21.23;;;1.70;99.90;;;;;;5053392;28;20045;-51
2022/01/27 02:51:06;;;;;;;46.45;21.42;;;1.70;99.90;;;;;;5053833;28;20036;-47
2022/01/27 02:53:31;;;;;;;40.97;23.50;;;1.70;99.90;;;;;;5052461;28;20025;-49
2022/01/27 02:55:57;;;;;;;44.30;22.65;;;1.80;99.90;;;;;;5052490;28;20396;-50
2022/01/27 02:58:22;;;;;;;47.03;22.55;;;1.80;99.90;;;;;;5053691;28;20104;-47
2022/01/27 03:00:48;;;;;;;38.40;20.88;;;1.80;99.90;;;;;;5053731;28;20021;-48
2022/01/27 03:03:13;;;;;;;43.00;22.05;;;1.80;99.90;;;;;;5053503;28;20025;-49
2022/01/27 03:05:39;;;;;;;43.92;21.77;;;1.80;99.90;;;;;;5053668;28;20021;-50
2022/01/27 03:08:05;;;;;;;44.97;20.80;;;1.70;99.90;;;;;;5053400;28;20033;-46
2022/01/27 03:10:34;;;;;;;44.65;22.70;;;1.80;99.90;;;;;;5053611;28;20504;-47
2022/01/27 03:13:00;;;;;;;42.00;20.95;;;1.80;99.90;;;;;;5053707;28;20025;-50
2022/01/27 03:15:29;;;;;;;43.80;22.08;;;1.80;99.90;;;;;;5053510;28;20071;-49
2022/01/27 03:17:55;;;;;;;39.15;19.25;;;1.80;99.90;;;;;;5053327;28;20028;-49
2022/01/27 03:20:20;;;;;;;43.33;20.60;;;1.70;99.90;;;;;;5053302;28;20079;-50
2022/01/27 03:22:46;;;;;;;41.08;21.92;;;1.70;99.90;;;;;;5053262;28;20017;-47
2022/01/27 03:25:11;;;;;;;41.63;20.80;;;1.80;99.90;;;;;;5053449;28;20025;-47
2022/01/27 03:27:44;;;;;;;42.50;22.70;;;1.80;99.90;;;;;;5051925;28;20032;-47
2022/01/27 03:30:10;;;;;;;43.30;20.83;;;1.80;99.90;;;;;;5053431;28;20031;-50
2022/01/27 03:32:36;;;;;;;40.35;20.42;;;1.80;99.90;;;;;;5053241;28;20025;-48
2022/01/27 03:35:02;;;;;;;46.80;21.63;;;1.80;99.90;;;;;;5052966;28;20033;-48
2022/01/27 03:37:27;;;;;;;41.22;20.13;;;1.80;99.90;;;;;;5053196;28;20044;-49
2022/01/27 03:39:53;;;;;;;42.17;21.85;;;1.80;99.90;;;;;;5053078;28;20028;-47
2022/01/27 03:42:18;;;;;;;41.03;19.90;;;1.80;99.90;;;;;;5052659;28;20036;-48
2022/01/27 03:44:44;;;;;;;44.58;20.58;;;1.80;99.90;;;;;;5051179;28;20049;-52
2022/01/27 03:47:09;;;;;;;40.42;19.83;;;1.80;99.90;;;;;;5052732;28;20033;-50
2022/01/27 03:49:35;;;;;;;39.08;20.02;;;1.80;99.90;;;;;;5053093;28;20381;-49
2022/01/27 03:52:01;;;;;;;39.75;19.75;;;1.80;99.90;;;;;;5052882;28;20024;-47
2022/01/27 03:54:28;;;;;;;34.78;19.38;;;1.80;99.90;;;;;;5052503;28;20029;-47
2022/01/27 03:56:53;;;;;;;40.15;21.73;;;1.80;99.90;;;;;;5052767;28;20029;-44
2022/01/27 03:59:19;;;;;;;42.92;20.98;;;1.90;99.90;;;;;;5052764;28;20078;-50
2022/01/27 04:01:44;;;;;;;41.40;20.20;;;1.80;99.90;;;;;;5052696;28;20024;-52
2022/01/27 04:04:10;;;;;;;39.22;20.67;;;1.80;99.90;;;;;;5052391;28;20052;-49
2022/01/27 04:06:37;;;;;;;42.17;21.20;;;1.80;99.90;;;;;;5052475;28;20025;-48
2022/01/27 04:09:05;;;;;;;39.80;19.20;;;1.80;99.90;;;;;;5052419;28;20025;-51
2022/01/27 04:11:30;;;;;;;41.45;21.15;;;1.80;99.90;;;;;;5052487;28;20087;-48
2022/01/27 04:13:56;;;;;;;38.38;20.27;;;1.80;99.90;;;;;;5052305;28;20029;-46
2022/01/27 04:16:22;;;;;;;39.00;20.30;;;1.80;99.90;;;;;;5052430;28;20096;-47
2022/01/27 04:18:47;;;;;;;38.42;19.88;;;1.80;99.90;;;;;;5052279;28;20492;-47
2022/01/27 04:21:14;;;;;;;40.05;19.30;;;1.80;99.90;;;;;;5052459;28;20496;-49
2022/01/27 04:23:39;;;;;;;40.00;20.10;;;1.80;99.90;;;;;;5051841;28;20087;-50
2022/01/27 04:26:06;;;;;;;42.13;20.88;;;1.90;99.90;;;;;;5052405;28;20025;-49
2022/01/27 04:28:34;;;;;;;39.58;19.55;;;1.80;99.90;;;;;;5052010;28;20392;-50
2022/01/27 04:31:03;;;;;;;40.58;19.48;;;1.80;99.90;;;;;;5052081;28;20558;-46
2022/01/27 04:33:31;;;;;;;38.67;18.80;;;1.90;99.90;;;;;;5050289;28;20431;-49
2022/01/27 04:36:00;;;;;;;39.38;19.27;;;1.90;99.90;;;;;;5051937;28;20498;-50
2022/01/27 04:38:43;;;;;;;36.80;19.05;;;1.90;99.90;;;;;;5052131;28;20074;-47
2022/01/27 04:41:16;;;;;;;38.40;18.92;;;2.00;99.90;;;;;;5051898;28;20508;-47
2022/01/27 04:43:51;;;;;;;38.55;18.63;;;2.00;99.90;;;;;;5051552;28;20025;-50
2022/01/27 04:46:35;;;;;;;37.15;17.38;;;2.00;99.90;;;;;;5051748;28;20020;-48
2022/01/27 04:49:03;;;;;;;36.15;18.50;;;2.00;99.90;;;;;;5051712;28;20170;-48
2022/01/27 04:51:30;;;;;;;32.72;18.17;;;2.00;99.90;;;;;;5051614;28;20025;-49
2022/01/27 04:54:03;;;;;;;34.28;17.40;;;2.00;99.90;;;;;;5051363;28;20036;-49
2022/01/27 04:56:30;;;;;;;36.38;18.30;;;1.90;99.90;;;;;;5050942;28;20053;-49
2022/01/27 04:59:00;;;;;;;36.80;17.67;;;1.90;99.90;;;;;;5050083;28;20025;-48
2022/01/27 05:01:33;;;;;;;34.08;17.92;;;1.90;99.90;;;;;;5051552;28;20032;-50
2022/01/27 05:04:10;;;;;;;34.17;17.60;;;1.90;99.90;;;;;;5049997;28;20025;-49
2022/01/27 05:06:36;;;;;;;35.08;17.88;;;1.90;99.90;;;;;;5051633;28;20024;-48
2022/01/27 05:09:03;;;;;;;32.55;17.50;;;1.90;99.90;;;;;;5050161;28;20024;-51
2022/01/27 05:11:35;;;;;;;32.95;15.68;;;1.90;99.90;;;;;;5051389;28;20488;-49
2022/01/27 05:14:08;;;;;;;31.40;16.48;;;1.90;99.90;;;;;;5049818;28;20481;-47
2022/01/27 05:16:34;;;;;;;31.98;16.13;;;1.90;99.90;;;;;;5051634;28;20112;-48
2022/01/27 05:18:59;;;;;;;34.67;16.20;;;1.90;99.90;;;;;;5051282;28;20560;-51
2022/01/27 05:21:25;;;;;;;32.53;16.33;;;2.00;99.90;;;;;;5050210;28;20066;-48
2022/01/27 05:23:51;;;;;;;39.80;17.27;;;2.00;99.90;;;;;;5051026;28;20021;-48
2022/01/27 05:26:16;;;;;;;38.00;18.23;;;2.00;99.90;;;;;;5051160;28;20514;-48
2022/01/27 05:28:42;;;;;;;36.30;17.23;;;2.00;99.90;;;;;;5051350;28;20024;-48
2022/01/27 05:31:08;;;;;;;38.92;17.60;;;2.00;99.90;;;;;;5051348;28;20021;-52
2022/01/27 05:33:33;;;;;;;34.80;18.02;;;2.00;99.90;;;;;;5050887;28;20028;-47
2022/01/27 05:35:59;;;;;;;42.47;19.15;;;1.90;99.90;;;;;;5051364;28;20024;-49
2022/01/27 05:38:25;;;;;;;36.70;19.00;;;2.00;99.90;;;;;;5049772;28;20033;-49
2022/01/27 05:40:51;;;;;;;46.33;22.17;;;1.90;99.90;;;;;;5051147;28;20033;-52
2022/01/27 05:43:16;;;;;;;43.40;20.83;;;1.90;99.90;;;;;;5050690;28;20017;-48
2022/01/27 05:45:42;;;;;;;43.80;20.40;;;1.80;99.90;;;;;;5051309;28;20556;-48
2022/01/27 05:48:07;;;;;;;48.55;23.55;;;1.90;99.90;;;;;;5049555;28;20067;-52
2022/01/27 05:50:33;;;;;;;43.22;20.88;;;1.80;99.90;;;;;;5051137;28;20021;-50
2022/01/27 05:52:59;;;;;;;43.20;20.52;;;1.70;99.90;;;;;;5050774;28;20396;-47
2022/01/27 05:55:25;;;;;;;43.53;19.98;;;1.70;99.90;;;;;;5051466;28;20064;-49
2022/01/27 05:57:51;;;;;;;42.45;19.40;;;1.70;99.90;;;;;;5050872;28;20388;-51
2022/01/27 06:00:17;;;;;;;40.13;20.52;;;1.70;99.90;;;;;;5050989;28;20028;-51
2022/01/27 06:02:43;;;;;;;44.08;20.35;;;1.70;99.90;;;;;;5049297;28;20119;-47
2022/01/27 06:05:10;;;;;;;40.75;19.08;;;1.70;99.90;;;;;;5051351;28;20108;-46
2022/01/27 06:07:35;;;;;;;47.60;21.30;;;1.70;99.90;;;;;;5053290;28;20036;-47
2022/01/27 06:10:01;;;;;;;41.63;19.17;;;1.70;99.90;;;;;;5053535;28;20048;-48
2022/01/27 06:12:27;;;;;;;43.50;21.60;;;1.70;99.90;;;;;;5054856;28;20032;-49
2022/01/27 06:14:52;;;;;;;38.80;19.15;;;1.60;99.90;;;;;;5054326;28;20100;-46
2022/01/27 06:17:18;;;;;;;41.60;18.63;;;1.70;99.90;;;;;;5053159;28;20377;-47
2022/01/27 06:19:44;;;;;;;39.70;18.60;;;1.70;99.90;;;;;;5054460;28;20025;-50
2022/01/27 06:22:14;;;;;;;41.25;19.70;;;1.70;99.90;;;;;;5053390;28;20021;-47
2022/01/27 06:24:43;;;;;;;36.25;18.50;;;1.70;99.90;;;;;;5053945;28;20025;-51
2022/01/27 06:27:10;;;;;;;34.88;17.60;;;1.70;99.90;;;;;;5052844;28;20070;-50
2022/01/27 06:29:37;;;;;;;34.47;17.38;;;1.70;99.90;;;;;;5054117;28;20055;-47
2022/01/27 06:32:03;;;;;;;37.03;18.60;;;1.80;99.90;;;;;;5054012;28;20033;-47
2022/01/27 06:34:29;;;;;;;32.45;16.52;;;1.80;99.90;;;;;;5052775;28;20021;-48
2022/01/27 06:36:54;;;;;;;36.38;18.40;;;1.80;99.90;;;;;;5054164;28;20488;-47
2022/01/27 06:39:20;;;;;;;37.15;17.10;;;1.80;99.90;;;;;;5052705;28;20112;-48
2022/01/27 06:41:45;;;;;;;35.65;17.95;;;1.80;99.90;;;;;;5054101;28;20061;-50
2022/01/27 06:44:11;;;;;;;36.10;17.65;;;1.80;99.90;;;;;;5053134;28;20104;-49
2022/01/27 06:46:37;;;;;;;36.28;16.67;;;1.80;99.90;;;;;;5054073;28;20068;-48
2022/01/27 06:49:04;;;;;;;35.00;17.25;;;1.80;99.90;;;;;;5091718;22;20052;-44
2022/01/27 06:51:30;;;;;;;34.58;16.58;;;1.90;99.90;;;;;;5073808;28;20117;-46
2022/01/27 06:53:57;;;;;;;34.63;16.60;;;1.90;99.90;;;;;;5073623;28;20032;-45
2022/01/27 06:56:23;;;;;;;30.30;17.20;;;1.80;99.90;;;;;;5074269;28;20096;-48
2022/01/27 06:58:49;;;;;;;41.40;18.05;;;1.70;99.90;;;;;;5073790;28;20112;-46
2022/01/27 07:01:14;;;;;;;30.25;16.48;;;1.80;99.90;;;;;;5073993;28;20499;-47
2022/01/27 07:03:40;;;;;;;31.75;16.88;;;1.80;99.90;;;;;;5073565;28;20021;-46
2022/01/27 07:06:06;;;;;;;33.13;16.88;;;1.80;99.90;;;;;;5073828;28;20017;-47
2022/01/27 07:08:31;;;;;;;35.58;17.77;;;1.80;99.90;;;;;;5073012;28;20035;-46
2022/01/27 07:10:57;;;;;;;37.35;17.80;;;1.80;99.90;;;;;;5073939;28;20039;-41
2022/01/27 07:13:22;;;;;;;34.80;17.30;;;1.80;99.90;;;;;;5073227;28;20033;-47
2022/01/27 07:15:48;;;;;;;34.88;17.70;;;1.80;99.90;;;;;;5073353;28;20397;-48
2022/01/27 07:18:14;;;;;;;34.67;17.38;;;1.80;99.90;;;;;;5072519;28;20075;-48
2022/01/27 07:20:40;;;;;;;33.55;17.00;;;1.80;99.90;;;;;;5073078;28;20024;-46
2022/01/27 07:23:08;;;;;;;36.38;16.70;;;1.80;99.90;;;;;;5072990;28;20108;-41
2022/01/27 07:25:34;;;;;;;35.47;17.77;;;1.80;99.90;;;;;;5073134;28;20021;-43
2022/01/27 07:28:00;;;;;;;37.30;17.50;;;1.80;99.90;;;;;;5073299;28;20041;-45
2022/01/27 07:30:25;;;;;;;36.28;16.63;;;1.80;99.90;;;;;;5073296;28;20577;-46
2022/01/27 07:32:51;;;;;;;37.55;17.02;;;1.80;99.90;;;;;;5073361;28;20036;-41
2022/01/27 07:35:16;;;;;;;33.45;16.77;;;1.70;99.90;;;;;;5073112;28;20103;-50
2022/01/27 07:37:43;;;;;;;32.35;17.23;;;1.70;99.90;;;;;;5073034;28;20487;-47
2022/01/27 07:40:10;;;;;;;30.08;15.68;;;1.70;99.90;;;;;;5073077;28;20024;-46
2022/01/27 07:42:35;;;;;;;37.45;19.40;;;1.80;99.90;;;;;;5072589;28;20021;-46
2022/01/27 07:45:01;;;;;;;38.42;18.08;;;1.70;99.90;;;;;;5072693;28;20032;-41
2022/01/27 07:47:26;;;;;;;43.47;21.08;;;1.80;99.90;;;;;;5073019;28;20464;-46
2022/01/27 07:49:52;;;;;;;41.72;18.33;;;1.70;99.90;;;;;;5072993;28;20042;-47
2022/01/27 07:52:19;;;;;;;47.05;21.73;;;1.70;99.90;;;;;;5071714;28;20074;-50
2022/01/27 07:54:45;;;;;;;39.72;18.92;;;1.70;99.90;;;;;;5072640;28;20037;-46
2022/01/27 07:57:12;;;;;;;41.95;20.48;;;1.60;99.90;;;;;;5072730;28;20020;-46
2022/01/27 07:59:38;;;;;;;36.88;18.77;;;1.60;99.90;;;;;;5072566;28;20388;-47
2022/01/27 08:02:03;;;;;;;40.20;19.88;;;1.60;99.90;;;;;;5071720;28;20028;-46
2022/01/27 08:04:29;;;;;;;41.08;21.83;;;1.60;99.90;;;;;;5072727;28;20132;-48
2022/01/27 08:06:56;;;;;;;44.20;20.83;;;1.60;99.90;;;;;;5071193;28;20078;-48
2022/01/27 08:09:22;;;;;;;48.10;22.50;;;1.70;99.90;;;;;;5072408;28;20040;-42
2022/01/27 08:11:48;;;;;;;39.78;20.58;;;1.70;99.90;;;;;;5072643;28;20035;-46
2022/01/27 08:14:13;;;;;;;40.47;20.55;;;1.70;99.90;;;;;;5072402;28;20028;-46
2022/01/27 08:16:39;;;;;;;42.90;21.38;;;1.60;99.90;;;;;;5072710;28;20031;-49
2022/01/27 08:19:04;;;;;;;42.47;21.48;;;1.70;99.90;;;;;;5072127;28;20125;-47
2022/01/27 08:21:30;;;;;;;43.60;20.05;;;1.70;99.90;;;;;;5072251;28;20024;-46
2022/01/27 08:23:57;;;;;;;39.72;19.70;;;1.60;99.90;;;;;;5072000;28;20476;-42
2022/01/27 08:26:44;;;;;;;46.50;22.50;;;1.70;99.90;;;;;;5072294;28;20025;-47
2022/01/27 08:31:55;;;;;;;41.70;21.23;;;1.70;99.90;;;;;;5072055;28;20028;-46
2022/01/27 08:34:29;;;;;;;40.25;19.60;;;1.70;99.90;;;;;;5071780;28;20032;-46
2022/01/27 08:36:56;;;;;;;41.08;20.25;;;1.70;99.90;;;;;;5071642;28;20044;-40
2022/01/27 08:39:22;;;;;;;38.10;20.60;;;1.70;99.90;;;;;;5071957;28;20025;-46
2022/01/27 08:41:47;;;;;;;44.72;20.45;;;1.70;99.90;;;;;;5072300;28;20158;-42
2022/01/27 08:44:13;;;;;;;43.42;21.20;;;1.80;99.90;;;;;;5071436;28;20060;-45
2022/01/27 08:46:38;;;;;;;45.38;20.52;;;1.80;99.90;;;;;;5070686;28;20017;-44
2022/01/27 08:49:05;;;;;;;42.13;20.40;;;1.80;99.90;;;;;;5071322;28;20033;-44
2022/01/27 08:51:32;;;;;;;37.22;19.00;;;1.70;99.90;;;;;;5071950;28;20401;-47
2022/01/27 08:53:57;;;;;;;43.63;19.95;;;1.70;99.90;;;;;;5070966;28;20028;-46
2022/01/27 08:56:23;;;;;;;36.05;18.35;;;1.70;99.90;;;;;;5061233;28;20059;-47
2022/01/27 08:58:49;;;;;;;31.88;18.13;;;1.70;99.90;;;;;;5071421;28;20032;-42
2022/01/27 09:01:16;;;;;;;38.47;17.75;;;1.70;99.90;;;;;;5071827;28;20044;-44
2022/01/27 09:03:43;;;;;;;37.80;17.83;;;1.60;99.90;;;;;;5054802;28;20055;-44
2022/01/27 09:06:08;;;;;;;37.30;17.92;;;1.60;99.90;;;;;;5060166;28;20033;-44
2022/01/27 09:08:34;;;;;;;36.70;18.75;;;1.50;99.90;;;;;;5071353;28;20024;-44
2022/01/27 09:11:00;;;;;;;33.70;17.83;;;1.50;99.90;;;;;;5071450;28;20549;-42
2022/01/27 09:13:25;;;;;;;36.17;19.38;;;1.50;99.90;;;;;;5070763;28;20513;-42
2022/01/27 09:15:51;;;;;;;40.60;17.50;;;1.40;99.90;;;;;;5071375;28;20032;-45
2022/01/27 09:18:17;;;;;;;32.95;16.70;;;1.40;99.90;;;;;;5071158;28;20177;-37
2022/01/27 09:20:44;;;;;;;34.08;17.98;;;1.30;99.90;;;;;;5071666;28;20100;-42
2022/01/27 09:23:13;;;;;;;38.38;17.80;;;1.30;99.90;;;;;;5071303;28;20093;-42
2022/01/27 09:25:45;;;;;;;41.00;19.17;;;1.40;99.90;;;;;;5071813;28;20012;-41
2022/01/27 09:28:12;;;;;;;39.10;19.08;;;1.50;99.90;;;;;;5071605;28;20020;-43
2022/01/27 09:30:39;;;;;;;36.25;17.98;;;1.50;99.90;;;;;;5071904;28;20028;-37
2022/01/27 09:33:05;;;;;;;40.00;17.42;;;1.50;99.90;;;;;;5071141;28;20085;-44
2022/01/27 09:35:31;;;;;;;41.78;18.05;;;1.60;99.90;;;;;;5071541;28;20029;-44
2022/01/27 09:37:58;;;;;;;37.63;17.05;;;1.60;99.90;;;;;;5071446;28;20040;-44
2022/01/27 09:40:24;;;;;;;40.75;16.75;;;1.70;99.90;;;;;;5071914;28;20126;-42
2022/01/27 09:42:53;;;;;;;35.95;17.50;;;1.70;99.90;;;;;;5074197;28;20394;-42
2022/01/27 09:45:20;;;;;;;36.50;18.17;;;1.60;99.90;;;;;;5076553;28;20013;-41
2022/01/27 09:47:55;;;;;;;39.25;17.58;;;1.70;99.90;;;;;;5074551;28;20032;-44
2022/01/27 09:50:28;;;;;;;37.95;17.73;;;1.70;99.90;;;;;;5076107;28;20137;-41
2022/01/27 09:52:54;;;;;;;39.45;17.77;;;1.70;99.90;;;;;;5075373;28;20056;-37
2022/01/27 09:55:21;;;;;;;35.25;16.40;;;1.70;99.90;;;;;;5074259;28;20381;-41
2022/01/27 09:57:46;;;;;;;40.65;16.45;;;1.70;99.90;;;;;;5073796;28;20082;-40
2022/01/27 10:00:13;;;;;;;34.35;16.80;;;1.60;99.90;;;;;;5075418;28;20024;-41
2022/01/27 10:02:58;;;;;;;37.78;17.08;;;1.70;99.90;;;;;;5075081;28;20033;-39
2022/01/27 10:05:24;;;;;;;38.33;16.45;;;1.70;99.90;;;;;;5074895;28;20104;-42
2022/01/27 10:07:50;;;;;;;31.73;16.67;;;1.70;99.90;;;;;;5074890;28;20064;-41
2022/01/27 10:10:17;;;;;;;32.00;16.75;;;1.80;99.90;;;;;;5075069;28;20024;-41
2022/01/27 10:12:50;;;;;;;32.08;16.10;;;1.70;99.90;;;;;;5074409;28;20017;-39
2022/01/27 10:15:21;;;;;;;35.20;15.40;;;1.70;99.90;;;;;;5074798;28;20025;-41
2022/01/27 10:18:05;;;;;;;31.33;15.35;;;;;;;;;;5074597;28;20027;-37
2022/01/27 10:20:31;;;;;;;33.40;15.75;;;1.70;99.90;;;;;;5073497;28;20388;-37
2022/01/27 10:23:20;;;;;;;32.20;15.23;;;1.60;99.90;;;;;;5074383;28;20013;-44
2022/01/27 10:25:53;;;;;;;31.63;15.13;;;1.60;99.90;;;;;;5074974;28;20032;-43
2022/01/27 10:28:30;;;;;;;37.95;16.65;;;1.60;99.90;;;;;;5074201;28;20462;-41
2022/01/27 10:31:04;;;;;;;34.22;16.08;;;1.60;99.90;;;;;;5074307;28;20046;-43
2022/01/27 10:34:03;;;;;;;32.08;15.27;;;1.70;99.90;;;;;;5073880;28;20028;-41
2022/01/27 10:36:40;;;;;;;33.38;16.40;;;1.70;99.90;;;;;;5074493;28;20441;-42
2022/01/27 10:39:05;;;;;;;28.27;14.63;;;1.70;99.90;;;;;;5075523;28;20145;-40
2022/01/27 10:41:33;;;;;;;30.55;13.90;;;1.80;99.90;;;;;;5074836;28;20504;-37
2022/01/27 10:44:13;;;;;;;31.92;15.10;;;1.80;99.90;;;;;;5074032;28;20023;-40
2022/01/27 10:46:47;;;;;;;32.92;15.93;;;1.80;99.90;;;;;;5072958;28;20020;-43
2022/01/27 10:49:23;;;;;;;33.70;15.73;;;1.80;99.90;;;;;;5073784;28;20033;-42
2022/01/27 10:51:52;;;;;;;31.38;15.07;;;1.80;99.90;;;;;;5074071;28;20039;-40
2022/01/27 10:57:10;;;;;;;32.10;14.52;;;1.90;99.90;;;;;;5073222;28;20032;-38
2022/01/27 10:59:36;;;;;;;30.83;14.75;;;1.90;99.90;;;;;;5069881;28;20028;-38
2022/01/27 11:02:07;;;;;;;30.58;14.80;;;1.90;99.90;;;;;;5080328;28;20031;-41
2022/01/27 11:04:39;;;;;;;28.35;14.57;;;1.90;99.90;;;;;;5085518;28;20028;-44
2022/01/27 11:07:10;;;;;;;32.25;16.98;;;1.90;99.90;;;;;;5084087;28;20479;-42
2022/01/27 11:09:42;;;;;;;29.17;13.65;;;1.90;99.90;;;;;;5073554;28;20029;-45
2022/01/27 11:12:16;;;;;;;28.90;14.77;;;1.90;99.90;;;;;;5073593;28;20028;-47
2022/01/27 11:14:47;;;;;;;28.23;13.75;;;1.90;99.90;;;;;;5073583;28;20035;-43
2022/01/27 11:17:18;;;;;;;30.35;14.02;;;2.00;99.90;;;;;;5073987;28;20483;-47
2022/01/27 11:27:32;;;;;;;26.33;13.57;;;2.20;99.90;;;;;;5066898;28;20504;-39
2022/01/27 11:30:16;;;;;;;27.05;13.43;;;2.00;99.90;;;;;;5073007;28;20141;-44
2022/01/27 11:32:53;;;;;;;25.15;13.50;;;2.00;99.90;;;;;;5070542;28;20021;-41
2022/01/27 11:35:19;;;;;;;27.35;14.25;;;2.10;99.90;;;;;;5053205;28;20025;-45
2022/01/27 11:37:53;;;;;;;29.40;15.63;;;2.20;99.90;;;;;;5054673;28;20472;-44
2022/01/27 11:40:20;;;;;;;27.83;13.27;;;2.20;99.90;;;;;;5069731;28;20031;-43
2022/01/27 11:42:55;;;;;;;29.67;13.90;;;2.30;99.90;;;;;;5059432;28;20111;-39
2022/01/27 11:45:20;;;;;;;28.08;14.13;;;2.40;99.90;;;;;;5064464;28;20078;-45
2022/01/27 11:48:01;;;;;;;24.08;12.45;;;2.50;99.90;;;;;;5065278;28;20483;-46
2022/01/27 11:50:49;;;;;;;23.38;12.93;;;2.50;99.90;;;;;;5073862;28;20016;-46
2022/01/27 11:53:27;;;;;;;30.88;15.00;;;2.50;99.90;;;;;;5062173;28;20051;-44
2022/01/27 11:55:53;;;;;;;26.75;13.55;;;2.40;99.90;;;;;;5071857;28;20031;-39
2022/01/27 11:58:20;;;;;;;28.00;14.05;;;2.40;99.90;;;;;;5073424;28;20476;-42
2022/01/27 12:01:06;;;;;;;29.25;14.32;;;2.40;99.90;;;;;;5058777;28;20017;-43
2022/01/27 12:03:32;;;;;;;32.50;14.13;;;2.40;99.90;;;;;;5052869;28;20025;-43
2022/01/27 12:06:19;;;;;;;27.67;14.10;;;1.60;99.90;;;;;;5052740;28;20029;-38
2022/01/27 12:08:45;;;;;;;26.70;13.20;;;2.40;99.90;;;;;;5052478;28;20021;-43
2022/01/27 12:11:45;;;;;;;41.25;13.50;;;2.40;99.90;;;;;;5052564;28;20024;-46
2022/01/27 12:14:13;;;;;;;26.13;13.15;;;2.30;99.90;;;;;;5052449;28;20395;-44
2022/01/27 12:16:52;;;;;;;24.10;14.25;;;2.30;99.90;;;;;;5052565;28;20044;-43
2022/01/27 12:19:18;;;;;;;27.75;13.75;;;2.30;99.90;;;;;;5069967;28;20116;-38
2022/01/27 12:21:59;;;;;;;26.90;14.43;;;2.30;99.90;;;;;;5058945;28;20151;-42
2022/01/27 12:24:28;;;;;;;30.27;13.35;;;2.30;99.90;;;;;;5053839;28;20100;-46
2022/01/27 12:26:58;;;;;;;24.02;12.93;;;2.30;99.90;;;;;;5071727;28;20023;-43
2022/01/27 12:29:29;;;;;;;24.65;13.32;;;2.30;99.90;;;;;;5064371;28;20017;-46
2022/01/27 12:31:57;;;;;;;24.67;14.13;;;2.30;99.90;;;;;;5053462;28;20111;-42
2022/01/27 12:34:23;;;;;;;26.92;13.02;;;2.30;99.90;;;;;;5068276;28;20430;-39
2022/01/27 12:37:03;;;;;;;25.83;13.30;;;2.30;99.90;;;;;;5070918;28;20024;-43
2022/01/27 12:39:32;;;;;;;23.98;12.38;;;2.30;99.90;;;;;;5072015;28;20020;-43
2022/01/27 12:42:04;;;;;;;23.08;12.35;;;2.30;99.90;;;;;;5072065;28;20025;-46
2022/01/27 12:44:30;;;;;;;27.77;13.15;;;2.40;99.90;;;;;;5070546;28;20391;-45
2022/01/27 12:47:04;;;;;;;26.50;14.75;;;;;;;;;;5070503;28;20016;-41
2022/01/27 12:49:38;;;;;;;26.85;13.50;;;;;;;;;;5079476;22;20053;-47
2022/01/27 12:52:07;;;;;;;26.20;14.60;;;;;;;;;;5051672;28;20100;-52
2022/01/27 12:54:33;;;;;;;27.02;13.82;;;;;;;;;;5051218;28;20013;-52
2022/01/27 12:56:59;;;;;;;25.70;13.77;;;;;;;;;;5051639;28;20025;-48
2022/01/27 12:59:30;;;;;;;29.40;14.75;;;;;;;;;;5051300;28;20064;-47
2022/01/27 13:01:57;;;;;;;26.80;13.68;;;;;;;;;;5051806;28;20488;-46
2022/01/27 13:04:26;;;;;;;27.65;14.82;;;;;;;;;;5050939;28;20029;-44
2022/01/27 13:06:54;;;;;;;32.70;15.93;;;;;;;;;;5048527;28;20558;-45
2022/01/27 13:09:20;;;;;;;34.05;17.30;;;;;;;;;;5050193;28;20033;-45
2022/01/27 13:11:47;;;;;;;34.72;16.23;;;;;;;;;;5050969;28;20036;-44
2022/01/27 13:14:13;;;;;;;28.08;15.65;;;;;;;;;;5050446;28;20092;-40
2022/01/27 13:16:45;;;;;;;30.15;13.90;;;;;;;;;;5050604;28;20025;-42
2022/01/27 13:19:28;;;;;;;25.50;14.95;;;;;;;;;;5051055;28;20032;-47
2022/01/27 13:22:01;;;;;;;119.80;67.20;;;2.60;99.90;;;;;;5051431;28;20021;-43
2022/01/27 13:24:30;;;;;;;34.70;18.67;;;2.80;99.90;;;;;;5051695;28;20045;-44
2022/01/27 13:27:09;;;;;;;39.22;18.65;;;2.80;99.90;;;;;;5051971;28;20066;-46
2022/01/27 13:29:39;;;;;;;35.03;17.60;;;2.70;99.90;;;;;;5051624;28;20024;-45
2022/01/27 13:32:07;;;;;;;32.63;16.90;;;2.70;99.90;;;;;;5049648;28;20040;-45
2022/01/27 13:34:33;;;;;;;36.35;18.13;;;2.70;99.90;;;;;;5050385;28;20029;-45